Blanchard, North Dakota
Current Conditions -  °F | °C
As of 11:53 AM on Wednesday 28 Jan 2015 (Local Time) from KFAR Reporting Station
Haze Haze  
Wind Chill: 26°   Ceiling: 800
Heat Index: 35°   Visibility: 5mi
Dew Point: 31°   Wind: 15mph
Humidity: 85%   Direction: 170°S
Pressure: 29.77"   Gusts: NA
Location:  47.34°N, 97.22°W
Report Text: KFAR 281753Z 17013KT 5SM BR OVC008 02/M01 A2977 RMK AO2 SLP093 T00171006 10022 20011 56005
Loading
Personal Weather Stations






























Interactive Weather Map New forecast layout! Learn more

10-Day Weather Forecast

Advertisements
Track Severe Weather on mobile